sensor_id;sensor_type;location;lat;lon;timestamp;pressure;altitude;pressure_sealevel;temperature;humidity
71344;BME280;59146;43.850;25.948;2023-07-08T00:00:19;101034.06;;;22.44;71.24
71344;BME280;59146;43.850;25.948;2023-07-08T00:02:44;101017.19;;;22.53;70.47
71344;BME280;59146;43.850;25.948;2023-07-08T00:05:12;100974.59;;;22.28;70.19
71344;BME280;59146;43.850;25.948;2023-07-08T00:07:39;101025.84;;;22.55;70.64
71344;BME280;59146;43.850;25.948;2023-07-08T00:10:21;101028.34;;;22.57;70.51
71344;BME280;59146;43.850;25.948;2023-07-08T00:12:53;101004.53;;;22.55;69.99
71344;BME280;59146;43.850;25.948;2023-07-08T00:15:21;100956.38;;;22.15;69.76
71344;BME280;59146;43.850;25.948;2023-07-08T00:17:47;100976.28;;;22.29;70.05
71344;BME280;59146;43.850;25.948;2023-07-08T00:20:36;100971.13;;;22.35;69.77
71344;BME280;59146;43.850;25.948;2023-07-08T00:23:02;100973.66;;;22.37;69.81
71344;BME280;59146;43.850;25.948;2023-07-08T00:25:29;101013.22;;;22.57;69.71
71344;BME280;59146;43.850;25.948;2023-07-08T00:27:55;100959.03;;;22.41;69.58
71344;BME280;59146;43.850;25.948;2023-07-08T00:30:29;100976.03;;;22.48;69.61
71344;BME280;59146;43.850;25.948;2023-07-08T00:32:55;101007.47;;;22.70;69.27
71344;BME280;59146;43.850;25.948;2023-07-08T00:37:48;101023.53;;;22.86;70.08
71344;BME280;59146;43.850;25.948;2023-07-08T00:40:16;101007.69;;;22.76;69.55
71344;BME280;59146;43.850;25.948;2023-07-08T00:42:44;100981.25;;;22.57;69.81
71344;BME280;59146;43.850;25.948;2023-07-08T00:45:37;101028.69;;;22.87;69.41
71344;BME280;59146;43.850;25.948;2023-07-08T00:50:42;100953.50;;;22.34;69.88
71344;BME280;59146;43.850;25.948;2023-07-08T00:53:28;101013.78;;;22.69;69.81
71344;BME280;59146;43.850;25.948;2023-07-08T00:59:01;101009.47;;;22.68;70.89
71344;BME280;59146;43.850;25.948;2023-07-08T01:01:29;100994.94;;;22.62;69.81
71344;BME280;59146;43.850;25.948;2023-07-08T01:04:05;100950.47;;;22.29;69.76
71344;BME280;59146;43.850;25.948;2023-07-08T01:06:34;100964.03;;;22.44;69.41
71344;BME280;59146;43.850;25.948;2023-07-08T01:09:05;101005.81;;;22.43;70.72
71344;BME280;59146;43.850;25.948;2023-07-08T01:11:33;101002.97;;;22.45;71.24
71344;BME280;59146;43.850;25.948;2023-07-08T01:14:01;100974.06;;;22.24;72.00
71344;BME280;59146;43.850;25.948;2023-07-08T01:16:28;100955.56;;;22.23;71.76
71344;BME280;59146;43.850;25.948;2023-07-08T01:18:53;100869.81;;;21.77;71.47
71344;BME280;59146;43.850;25.948;2023-07-08T01:21:37;100993.91;;;22.55;71.07
71344;BME280;59146;43.850;25.948;2023-07-08T01:24:06;101021.66;;;22.53;72.40
71344;BME280;59146;43.850;25.948;2023-07-08T01:26:35;100979.06;;;22.27;72.40
71344;BME280;59146;43.850;25.948;2023-07-08T01:29:01;101032.56;;;22.59;72.36
71344;BME280;59146;43.850;25.948;2023-07-08T01:31:26;101031.47;;;22.52;73.06
71344;BME280;59146;43.850;25.948;2023-07-08T01:33:52;101023.53;;;22.35;73.84
71344;BME280;59146;43.850;25.948;2023-07-08T01:36:18;101023.94;;;22.48;73.70
71344;BME280;59146;43.850;25.948;2023-07-08T01:38:45;101015.06;;;22.39;73.87
71344;BME280;59146;43.850;25.948;2023-07-08T01:41:12;101021.44;;;22.46;73.83
71344;BME280;59146;43.850;25.948;2023-07-08T01:43:38;100984.13;;;22.12;74.37
71344;BME280;59146;43.850;25.948;2023-07-08T01:46:04;100973.06;;;21.82;75.58
71344;BME280;59146;43.850;25.948;2023-07-08T01:48:38;101024.81;;;22.05;75.75
71344;BME280;59146;43.850;25.948;2023-07-08T01:51:06;101059.28;;;22.14;75.66
71344;BME280;59146;43.850;25.948;2023-07-08T01:53:37;101003.44;;;21.79;76.21
71344;BME280;59146;43.850;25.948;2023-07-08T01:56:04;101011.84;;;21.75;77.14
71344;BME280;59146;43.850;25.948;2023-07-08T01:58:29;100997.88;;;21.73;76.33
71344;BME280;59146;43.850;25.948;2023-07-08T02:00:55;101031.66;;;21.90;76.56
71344;BME280;59146;43.850;25.948;2023-07-08T02:03:21;101012.84;;;21.74;76.68
71344;BME280;59146;43.850;25.948;2023-07-08T02:05:47;101078.84;;;21.88;78.56
71344;BME280;59146;43.850;25.948;2023-07-08T02:08:12;101024.69;;;21.62;78.39
71344;BME280;59146;43.850;25.948;2023-07-08T02:10:39;101017.47;;;21.54;78.62
71344;BME280;59146;43.850;25.948;2023-07-08T02:13:05;101017.00;;;21.41;79.82
71344;BME280;59146;43.850;25.948;2023-07-08T02:15:31;101091.19;;;21.79;79.58
71344;BME280;59146;43.850;25.948;2023-07-08T02:17:57;101039.41;;;21.56;81.09
71344;BME280;59146;43.850;25.948;2023-07-08T02:20:22;101100.84;;;21.80;81.80
71344;BME280;59146;43.850;25.948;2023-07-08T02:22:48;101034.72;;;21.23;82.32
71344;BME280;59146;43.850;25.948;2023-07-08T02:25:14;101060.19;;;21.16;83.03
71344;BME280;59146;43.850;25.948;2023-07-08T02:27:39;101013.94;;;20.82;82.29
71344;BME280;59146;43.850;25.948;2023-07-08T02:30:05;101103.66;;;21.24;82.77
71344;BME280;59146;43.850;25.948;2023-07-08T02:32:31;101054.25;;;20.95;83.71
71344;BME280;59146;43.850;25.948;2023-07-08T02:35:01;101079.63;;;21.16;83.64
71344;BME280;59146;43.850;25.948;2023-07-08T02:37:29;101101.16;;;21.23;85.34
71344;BME280;59146;43.850;25.948;2023-07-08T02:39:54;100994.47;;;20.54;86.01
71344;BME280;59146;43.850;25.948;2023-07-08T02:42:20;101029.59;;;20.75;87.85
71344;BME280;59146;43.850;25.948;2023-07-08T02:44:46;100995.38;;;20.35;88.24
71344;BME280;59146;43.850;25.948;2023-07-08T02:47:11;101043.72;;;20.66;90.44
71344;BME280;59146;43.850;25.948;2023-07-08T02:49:36;101070.66;;;20.81;90.77
71344;BME280;59146;43.850;25.948;2023-07-08T02:52:02;101034.94;;;20.66;90.84
71344;BME280;59146;43.850;25.948;2023-07-08T02:54:29;101032.94;;;20.77;90.40
71344;BME280;59146;43.850;25.948;2023-07-08T02:56:54;101086.50;;;21.09;89.93
71344;BME280;59146;43.850;25.948;2023-07-08T02:59:19;101076.41;;;21.22;88.86
71344;BME280;59146;43.850;25.948;2023-07-08T03:01:45;101061.78;;;21.09;88.81
71344;BME280;59146;43.850;25.948;2023-07-08T03:04:13;101015.59;;;20.83;88.77
71344;BME280;59146;43.850;25.948;2023-07-08T03:06:50;101052.97;;;20.99;90.07
71344;BME280;59146;43.850;25.948;2023-07-08T03:09:16;101045.91;;;20.90;90.40
71344;BME280;59146;43.850;25.948;2023-07-08T03:11:42;101061.91;;;21.07;90.05
71344;BME280;59146;43.850;25.948;2023-07-08T03:14:08;101051.03;;;21.01;89.16
71344;BME280;59146;43.850;25.948;2023-07-08T03:16:33;101052.81;;;21.10;88.11
71344;BME280;59146;43.850;25.948;2023-07-08T03:18:58;101071.75;;;21.24;87.99
71344;BME280;59146;43.850;25.948;2023-07-08T03:21:24;101064.00;;;21.13;88.09
71344;BME280;59146;43.850;25.948;2023-07-08T03:23:50;101064.00;;;21.13;88.02
71344;BME280;59146;43.850;25.948;2023-07-08T03:26:19;101045.00;;;21.08;88.31
71344;BME280;59146;43.850;25.948;2023-07-08T03:28:45;101026.28;;;21.00;87.96
71344;BME280;59146;43.850;25.948;2023-07-08T03:31:11;101079.56;;;21.35;87.10
71344;BME280;59146;43.850;25.948;2023-07-08T03:33:36;101088.06;;;21.39;87.23
71344;BME280;59146;43.850;25.948;2023-07-08T03:36:04;101082.50;;;21.32;87.17
71344;BME280;59146;43.850;25.948;2023-07-08T03:38:30;101076.06;;;21.35;87.76
71344;BME280;59146;43.850;25.948;2023-07-08T03:40:55;100980.13;;;20.74;87.66
71344;BME280;59146;43.850;25.948;2023-07-08T03:43:20;101055.72;;;21.16;88.09
71344;BME280;59146;43.850;25.948;2023-07-08T03:45:46;101070.63;;;21.27;88.91
71344;BME280;59146;43.850;25.948;2023-07-08T03:48:12;101054.94;;;21.06;90.27
71344;BME280;59146;43.850;25.948;2023-07-08T03:50:38;101036.28;;;20.79;90.70
71344;BME280;59146;43.850;25.948;2023-07-08T03:53:04;101038.53;;;20.74;91.82
71344;BME280;59146;43.850;25.948;2023-07-08T03:55:29;101019.00;;;20.75;90.96
71344;BME280;59146;43.850;25.948;2023-07-08T03:57:55;101079.38;;;21.19;90.44
71344;BME280;59146;43.850;25.948;2023-07-08T04:00:20;101010.72;;;20.78;90.86
71344;BME280;59146;43.850;25.948;2023-07-08T04:02:46;101084.19;;;21.33;89.64
71344;BME280;59146;43.850;25.948;2023-07-08T04:05:20;101090.88;;;21.38;89.26
71344;BME280;59146;43.850;25.948;2023-07-08T04:07:47;101066.66;;;21.13;89.16
71344;BME280;59146;43.850;25.948;2023-07-08T04:10:13;101041.81;;;21.05;89.00
71344;BME280;59146;43.850;25.948;2023-07-08T04:12:39;101069.59;;;21.38;88.18
71344;BME280;59146;43.850;25.948;2023-07-08T04:15:07;101043.44;;;21.43;87.39
71344;BME280;59146;43.850;25.948;2023-07-08T04:17:35;100976.13;;;20.97;87.02
71344;BME280;59146;43.850;25.948;2023-07-08T04:20:02;101046.63;;;21.46;87.04
71344;BME280;59146;43.850;25.948;2023-07-08T04:22:29;101035.16;;;21.46;86.22
71344;BME280;59146;43.850;25.948;2023-07-08T04:24:54;101025.13;;;21.40;85.83
71344;BME280;59146;43.850;25.948;2023-07-08T04:27:20;101043.22;;;21.54;86.12
71344;BME280;59146;43.850;25.948;2023-07-08T04:29:46;101061.16;;;21.69;86.73
71344;BME280;59146;43.850;25.948;2023-07-08T04:32:11;101056.53;;;21.71;85.75
71344;BME280;59146;43.850;25.948;2023-07-08T04:34:36;101022.63;;;21.56;86.01
71344;BME280;59146;43.850;25.948;2023-07-08T04:37:02;101045.81;;;21.63;86.52
71344;BME280;59146;43.850;25.948;2023-07-08T04:39:30;101064.63;;;21.97;84.82
71344;BME280;59146;43.850;25.948;2023-07-08T04:41:55;101072.06;;;21.93;84.20
71344;BME280;59146;43.850;25.948;2023-07-08T04:44:22;101101.25;;;22.03;84.87
71344;BME280;59146;43.850;25.948;2023-07-08T04:46:49;101090.91;;;22.00;84.68
71344;BME280;59146;43.850;25.948;2023-07-08T04:49:18;101101.63;;;22.08;84.68
71344;BME280;59146;43.850;25.948;2023-07-08T04:51:44;101055.41;;;21.74;85.66
71344;BME280;59146;43.850;25.948;2023-07-08T04:54:10;101043.41;;;21.70;85.06
71344;BME280;59146;43.850;25.948;2023-07-08T04:56:42;101128.16;;;22.00;86.36
71344;BME280;59146;43.850;25.948;2023-07-08T04:59:09;101093.31;;;21.76;86.45
71344;BME280;59146;43.850;25.948;2023-07-08T05:01:36;101085.00;;;21.79;86.51
71344;BME280;59146;43.850;25.948;2023-07-08T05:04:02;101069.75;;;21.63;86.00
71344;BME280;59146;43.850;25.948;2023-07-08T05:06:28;101074.97;;;21.73;85.57
71344;BME280;59146;43.850;25.948;2023-07-08T05:08:54;101107.31;;;21.95;86.04
71344;BME280;59146;43.850;25.948;2023-07-08T05:11:19;101116.78;;;22.07;85.69
71344;BME280;59146;43.850;25.948;2023-07-08T05:13:45;101117.97;;;22.13;85.86
71344;BME280;59146;43.850;25.948;2023-07-08T05:16:10;101079.13;;;22.02;85.19
71344;BME280;59146;43.850;25.948;2023-07-08T05:18:36;101103.25;;;22.01;85.35
71344;BME280;59146;43.850;25.948;2023-07-08T05:21:02;101118.97;;;22.30;84.51
71344;BME280;59146;43.850;25.948;2023-07-08T05:23:28;101148.75;;;22.33;85.45
71344;BME280;59146;43.850;25.948;2023-07-08T05:25:53;101105.66;;;22.12;84.51
71344;BME280;59146;43.850;25.948;2023-07-08T05:28:19;101058.00;;;21.83;85.32
71344;BME280;59146;43.850;25.948;2023-07-08T05:30:46;101126.78;;;22.31;85.12
71344;BME280;59146;43.850;25.948;2023-07-08T05:33:12;101129.91;;;22.44;84.14
71344;BME280;59146;43.850;25.948;2023-07-08T05:35:37;101074.28;;;21.98;84.74
71344;BME280;59146;43.850;25.948;2023-07-08T05:38:03;101128.84;;;22.20;85.24
71344;BME280;59146;43.850;25.948;2023-07-08T05:40:28;101007.53;;;21.74;84.57
71344;BME280;59146;43.850;25.948;2023-07-08T05:42:54;101142.44;;;22.52;84.37
71344;BME280;59146;43.850;25.948;2023-07-08T05:45:19;101066.06;;;22.09;84.37
71344;BME280;59146;43.850;25.948;2023-07-08T05:47:44;101016.66;;;21.89;82.98
71344;BME280;59146;43.850;25.948;2023-07-08T05:50:10;101158.19;;;22.80;83.25
71344;BME280;59146;43.850;25.948;2023-07-08T05:52:35;101140.56;;;22.62;83.06
71344;BME280;59146;43.850;25.948;2023-07-08T05:55:01;101178.13;;;22.76;82.80
71344;BME280;59146;43.850;25.948;2023-07-08T05:57:26;101089.69;;;22.30;82.76
71344;BME280;59146;43.850;25.948;2023-07-08T05:59:52;101144.56;;;22.48;83.35
71344;BME280;59146;43.850;25.948;2023-07-08T06:02:18;101159.25;;;22.70;84.17
71344;BME280;59146;43.850;25.948;2023-07-08T06:04:47;101137.06;;;22.61;83.30
71344;BME280;59146;43.850;25.948;2023-07-08T06:07:12;101146.88;;;22.61;83.29
71344;BME280;59146;43.850;25.948;2023-07-08T06:09:37;101105.91;;;22.01;83.18
71344;BME280;59146;43.850;25.948;2023-07-08T06:12:03;101169.16;;;22.42;84.49
71344;BME280;59146;43.850;25.948;2023-07-08T06:14:29;101150.88;;;22.12;84.00
71344;BME280;59146;43.850;25.948;2023-07-08T06:16:54;101135.28;;;21.99;84.30
71344;BME280;59146;43.850;25.948;2023-07-08T06:19:20;101153.53;;;21.94;85.85
71344;BME280;59146;43.850;25.948;2023-07-08T06:21:46;101216.41;;;22.13;89.02
71344;BME280;59146;43.850;25.948;2023-07-08T06:24:11;101193.00;;;21.99;89.60
71344;BME280;59146;43.850;25.948;2023-07-08T06:26:37;101203.38;;;21.92;89.15
71344;BME280;59146;43.850;25.948;2023-07-08T06:29:03;101201.94;;;21.98;89.98
71344;BME280;59146;43.850;25.948;2023-07-08T06:31:29;101120.97;;;21.56;89.38
71344;BME280;59146;43.850;25.948;2023-07-08T06:33:55;101171.28;;;22.03;90.27
71344;BME280;59146;43.850;25.948;2023-07-08T06:36:20;101135.97;;;21.84;89.27
71344;BME280;59146;43.850;25.948;2023-07-08T06:38:46;101134.00;;;21.86;88.75
71344;BME280;59146;43.850;25.948;2023-07-08T06:41:11;101159.78;;;22.03;87.39
71344;BME280;59146;43.850;25.948;2023-07-08T06:43:36;101143.75;;;21.95;86.69
71344;BME280;59146;43.850;25.948;2023-07-08T06:46:02;101170.59;;;22.19;87.00
71344;BME280;59146;43.850;25.948;2023-07-08T06:48:27;101118.59;;;22.07;86.25
71344;BME280;59146;43.850;25.948;2023-07-08T06:50:52;101133.84;;;22.23;86.08
71344;BME280;59146;43.850;25.948;2023-07-08T06:53:18;101186.88;;;22.51;86.04
71344;BME280;59146;43.850;25.948;2023-07-08T06:55:45;101176.38;;;22.32;88.47
71344;BME280;59146;43.850;25.948;2023-07-08T06:58:10;101172.09;;;22.39;87.59
71344;BME280;59146;43.850;25.948;2023-07-08T07:00:36;101167.47;;;22.24;87.50
71344;BME280;59146;43.850;25.948;2023-07-08T07:03:01;101165.34;;;22.27;88.11
71344;BME280;59146;43.850;25.948;2023-07-08T07:05:27;101131.56;;;22.10;88.79
71344;BME280;59146;43.850;25.948;2023-07-08T07:07:52;101141.72;;;22.24;87.02
71344;BME280;59146;43.850;25.948;2023-07-08T07:10:18;101177.28;;;22.41;86.68
71344;BME280;59146;43.850;25.948;2023-07-08T07:12:44;101174.53;;;22.50;85.21
71344;BME280;59146;43.850;25.948;2023-07-08T07:15:10;101133.56;;;22.43;86.84
71344;BME280;59146;43.850;25.948;2023-07-08T07:17:35;101164.88;;;22.67;84.50
71344;BME280;59146;43.850;25.948;2023-07-08T07:20:01;101155.78;;;22.95;82.32
71344;BME280;59146;43.850;25.948;2023-07-08T07:22:27;101135.34;;;22.78;82.03
71344;BME280;59146;43.850;25.948;2023-07-08T07:24:53;101197.59;;;23.46;79.61
71344;BME280;59146;43.850;25.948;2023-07-08T07:27:19;101212.91;;;23.18;81.00
71344;BME280;59146;43.850;25.948;2023-07-08T07:29:47;101225.19;;;23.37;80.85
71344;BME280;59146;43.850;25.948;2023-07-08T07:32:14;101195.88;;;23.37;79.61
71344;BME280;59146;43.850;25.948;2023-07-08T07:34:40;101161.16;;;23.29;78.69
71344;BME280;59146;43.850;25.948;2023-07-08T07:37:07;101148.38;;;23.32;77.64
71344;BME280;59146;43.850;25.948;2023-07-08T07:39:35;101187.94;;;23.87;76.21
71344;BME280;59146;43.850;25.948;2023-07-08T07:42:01;101155.41;;;23.75;75.62
71344;BME280;59146;43.850;25.948;2023-07-08T07:44:26;101210.78;;;23.89;74.89
71344;BME280;59146;43.850;25.948;2023-07-08T07:46:52;101210.44;;;23.92;76.13
71344;BME280;59146;43.850;25.948;2023-07-08T07:49:19;101153.41;;;23.85;75.14
71344;BME280;59146;43.850;25.948;2023-07-08T07:51:45;101186.03;;;24.13;75.91
71344;BME280;59146;43.850;25.948;2023-07-08T07:54:10;101094.34;;;23.64;76.81
71344;BME280;59146;43.850;25.948;2023-07-08T07:56:36;101210.13;;;24.45;74.91
71344;BME280;59146;43.850;25.948;2023-07-08T07:59:02;101193.09;;;24.54;76.32
71344;BME280;59146;43.850;25.948;2023-07-08T08:01:27;101190.09;;;24.73;76.28
71344;BME280;59146;43.850;25.948;2023-07-08T08:03:53;101204.63;;;24.71;74.27
71344;BME280;59146;43.850;25.948;2023-07-08T08:06:18;101187.59;;;24.39;75.83
71344;BME280;59146;43.850;25.948;2023-07-08T08:08:44;101158.50;;;24.12;76.05
71344;BME280;59146;43.850;25.948;2023-07-08T08:11:10;101195.16;;;24.02;75.91
71344;BME280;59146;43.850;25.948;2023-07-08T08:13:36;101206.78;;;23.93;75.09
71344;BME280;59146;43.850;25.948;2023-07-08T08:16:02;101194.16;;;24.03;74.46
71344;BME280;59146;43.850;25.948;2023-07-08T08:18:27;101163.34;;;23.67;76.73
71344;BME280;59146;43.850;25.948;2023-07-08T08:20:53;101200.75;;;23.75;76.66
71344;BME280;59146;43.850;25.948;2023-07-08T08:23:18;101207.09;;;23.90;76.27
71344;BME280;59146;43.850;25.948;2023-07-08T08:25:44;101175.94;;;23.91;76.77
71344;BME280;59146;43.850;25.948;2023-07-08T08:28:09;101162.28;;;23.94;76.73
71344;BME280;59146;43.850;25.948;2023-07-08T08:30:35;101150.59;;;23.95;75.84
71344;BME280;59146;43.850;25.948;2023-07-08T08:33:01;101222.97;;;24.41;76.53
71344;BME280;59146;43.850;25.948;2023-07-08T08:35:26;101185.59;;;24.50;75.07
71344;BME280;59146;43.850;25.948;2023-07-08T08:37:52;101158.22;;;24.48;71.79
71344;BME280;59146;43.850;25.948;2023-07-08T08:40:19;101130.84;;;24.45;70.51
71344;BME280;59146;43.850;25.948;2023-07-08T08:43:06;101221.34;;;24.97;69.83
71344;BME280;59146;43.850;25.948;2023-07-08T08:45:52;101181.59;;;24.94;68.62
71344;BME280;59146;43.850;25.948;2023-07-08T08:48:19;101196.63;;;25.03;67.66
71344;BME280;59146;43.850;25.948;2023-07-08T08:53:18;101185.94;;;24.87;66.64
71344;BME280;59146;43.850;25.948;2023-07-08T08:55:54;101240.69;;;25.23;66.34
71344;BME280;59146;43.850;25.948;2023-07-08T08:58:43;101243.56;;;25.21;66.69
71344;BME280;59146;43.850;25.948;2023-07-08T09:01:13;101228.84;;;25.17;67.12
71344;BME280;59146;43.850;25.948;2023-07-08T09:03:43;101239.53;;;25.42;66.11
71344;BME280;59146;43.850;25.948;2023-07-08T09:08:49;101166.91;;;25.61;65.76
71344;BME280;59146;43.850;25.948;2023-07-08T09:11:36;101230.31;;;26.30;61.45
71344;BME280;59146;43.850;25.948;2023-07-08T09:14:05;101180.47;;;26.29;61.25
71344;BME280;59146;43.850;25.948;2023-07-08T09:16:49;101225.50;;;26.79;60.25
71344;BME280;59146;43.850;25.948;2023-07-08T09:19:30;101197.13;;;26.39;60.30
71344;BME280;59146;43.850;25.948;2023-07-08T09:24:45;101231.88;;;26.47;61.08
71344;BME280;59146;43.850;25.948;2023-07-08T09:27:12;101183.53;;;26.18;61.04
71344;BME280;59146;43.850;25.948;2023-07-08T09:29:37;101214.56;;;26.35;61.11
71344;BME280;59146;43.850;25.948;2023-07-08T09:32:27;101224.84;;;26.23;61.59
71344;BME280;59146;43.850;25.948;2023-07-08T09:34:54;101170.75;;;26.28;60.76
71344;BME280;59146;43.850;25.948;2023-07-08T09:37:21;101220.28;;;26.77;59.05
71344;BME280;59146;43.850;25.948;2023-07-08T09:39:47;101168.75;;;26.67;58.80
71344;BME280;59146;43.850;25.948;2023-07-08T09:42:13;101229.13;;;27.00;57.56
71344;BME280;59146;43.850;25.948;2023-07-08T09:44:40;101110.78;;;26.37;57.93
71344;BME280;59146;43.850;25.948;2023-07-08T09:47:24;101165.06;;;26.91;57.31
71344;BME280;59146;43.850;25.948;2023-07-08T09:49:52;101230.72;;;27.46;56.59
71344;BME280;59146;43.850;25.948;2023-07-08T09:52:18;101205.34;;;26.60;58.38
71344;BME280;59146;43.850;25.948;2023-07-08T09:54:45;101173.00;;;26.84;57.58
71344;BME280;59146;43.850;25.948;2023-07-08T09:57:27;101218.72;;;27.05;56.89
71344;BME280;59146;43.850;25.948;2023-07-08T09:59:59;101153.47;;;26.75;56.77
71344;BME280;59146;43.850;25.948;2023-07-08T10:02:31;101230.00;;;27.15;56.85
71344;BME280;59146;43.850;25.948;2023-07-08T10:05:01;101169.16;;;27.01;58.37
71344;BME280;59146;43.850;25.948;2023-07-08T10:07:30;101175.81;;;27.05;57.28
71344;BME280;59146;43.850;25.948;2023-07-08T10:10:00;101154.53;;;26.89;57.95
71344;BME280;59146;43.850;25.948;2023-07-08T10:12:28;101197.41;;;27.56;56.65
71344;BME280;59146;43.850;25.948;2023-07-08T10:15:01;101149.56;;;27.59;56.32
71344;BME280;59146;43.850;25.948;2023-07-08T10:17:29;101156.44;;;27.47;56.54
71344;BME280;59146;43.850;25.948;2023-07-08T10:19:56;101201.81;;;27.78;56.31
71344;BME280;59146;43.850;25.948;2023-07-08T10:22:47;101195.66;;;27.48;57.58
71344;BME280;59146;43.850;25.948;2023-07-08T10:28:37;101168.91;;;26.73;57.78
71344;BME280;59146;43.850;25.948;2023-07-08T10:31:26;101151.75;;;26.60;58.36
71344;BME280;59146;43.850;25.948;2023-07-08T10:36:54;101137.91;;;26.11;59.84
71344;BME280;59146;43.850;25.948;2023-07-08T10:45:31;101159.25;;;26.19;66.63
71344;BME280;59146;43.850;25.948;2023-07-08T10:56:20;101148.63;;;26.94;59.64
71344;BME280;59146;43.850;25.948;2023-07-08T11:01:57;101152.09;;;27.61;61.06
71344;BME280;59146;43.850;25.948;2023-07-08T11:04:37;101149.66;;;27.66;58.39
71344;BME280;59146;43.850;25.948;2023-07-08T11:07:41;101136.63;;;27.63;59.67
71344;BME280;59146;43.850;25.948;2023-07-08T11:10:28;101084.00;;;27.32;55.97
71344;BME280;59146;43.850;25.948;2023-07-08T11:13:04;101095.16;;;27.50;53.06
71344;BME280;59146;43.850;25.948;2023-07-08T11:15:36;101135.41;;;27.50;56.38
71344;BME280;59146;43.850;25.948;2023-07-08T11:21:11;101122.47;;;26.81;57.05
71344;BME280;59146;43.850;25.948;2023-07-08T11:28:29;101133.28;;;26.65;56.85
71344;BME280;59146;43.850;25.948;2023-07-08T11:30:58;101157.78;;;26.99;55.95
71344;BME280;59146;43.850;25.948;2023-07-08T11:33:26;101131.91;;;27.06;53.97
71344;BME280;59146;43.850;25.948;2023-07-08T11:35:53;101123.69;;;27.37;55.23
71344;BME280;59146;43.850;25.948;2023-07-08T11:38:24;101133.75;;;27.64;54.49
71344;BME280;59146;43.850;25.948;2023-07-08T11:43:27;101099.09;;;27.69;54.22
71344;BME280;59146;43.850;25.948;2023-07-08T11:45:55;101090.47;;;27.38;53.93
71344;BME280;59146;43.850;25.948;2023-07-08T11:48:29;101139.19;;;27.71;53.76
71344;BME280;59146;43.850;25.948;2023-07-08T11:50:56;101101.88;;;27.76;54.47
71344;BME280;59146;43.850;25.948;2023-07-08T11:56:01;101137.50;;;28.20;53.84
71344;BME280;59146;43.850;25.948;2023-07-08T11:58:29;101050.38;;;27.87;53.29
71344;BME280;59146;43.850;25.948;2023-07-08T12:03:37;101104.63;;;28.88;51.80
71344;BME280;59146;43.850;25.948;2023-07-08T12:08:52;101151.50;;;29.41;40.07
71344;BME280;59146;43.850;25.948;2023-07-08T12:11:18;101113.53;;;28.95;40.05
71344;BME280;59146;43.850;25.948;2023-07-08T12:13:49;101108.13;;;28.61;39.60
71344;BME280;59146;43.850;25.948;2023-07-08T12:16:14;101125.03;;;28.12;41.82
71344;BME280;59146;43.850;25.948;2023-07-08T12:18:40;101098.78;;;27.93;42.80
71344;BME280;59146;43.850;25.948;2023-07-08T12:21:12;101068.97;;;27.88;42.99
71344;BME280;59146;43.850;25.948;2023-07-08T12:23:44;101102.56;;;27.99;42.23
71344;BME280;59146;43.850;25.948;2023-07-08T12:26:10;101180.03;;;28.16;41.50
71344;BME280;59146;43.850;25.948;2023-07-08T12:28:39;101121.00;;;27.51;41.56
71344;BME280;59146;43.850;25.948;2023-07-08T12:31:19;101107.84;;;27.27;42.51
71344;BME280;59146;43.850;25.948;2023-07-08T12:33:46;101117.56;;;27.14;40.75
71344;BME280;59146;43.850;25.948;2023-07-08T12:36:17;101115.34;;;27.17;40.92
71344;BME280;59146;43.850;25.948;2023-07-08T12:38:44;101103.72;;;27.39;40.74
71344;BME280;59146;43.850;25.948;2023-07-08T12:41:14;101160.03;;;27.69;40.27
71344;BME280;59146;43.850;25.948;2023-07-08T12:43:40;101098.25;;;27.04;39.96
71344;BME280;59146;43.850;25.948;2023-07-08T12:46:09;101147.31;;;27.04;39.91
71344;BME280;59146;43.850;25.948;2023-07-08T12:48:35;101130.88;;;27.22;39.57
71344;BME280;59146;43.850;25.948;2023-07-08T12:51:02;100997.22;;;26.75;38.73
71344;BME280;59146;43.850;25.948;2023-07-08T12:53:28;101107.06;;;27.77;38.86
71344;BME280;59146;43.850;25.948;2023-07-08T12:55:55;101130.66;;;27.96;38.05
71344;BME280;59146;43.850;25.948;2023-07-08T12:58:28;101096.56;;;28.18;37.24
71344;BME280;59146;43.850;25.948;2023-07-08T13:00:55;101103.97;;;28.37;37.83
71344;BME280;59146;43.850;25.948;2023-07-08T13:03:28;101151.13;;;28.61;36.66
71344;BME280;59146;43.850;25.948;2023-07-08T13:05:55;101150.16;;;28.68;36.23
71344;BME280;59146;43.850;25.948;2023-07-08T13:08:23;101104.31;;;28.76;35.70
71344;BME280;59146;43.850;25.948;2023-07-08T13:10:56;101150.94;;;28.90;35.91
71344;BME280;59146;43.850;25.948;2023-07-08T13:13:26;101094.94;;;28.45;36.70
71344;BME280;59146;43.850;25.948;2023-07-08T13:15:53;101108.00;;;28.48;36.48
71344;BME280;59146;43.850;25.948;2023-07-08T13:18:32;101082.22;;;28.32;35.77
71344;BME280;59146;43.850;25.948;2023-07-08T13:20:59;101128.22;;;28.44;36.86
71344;BME280;59146;43.850;25.948;2023-07-08T13:23:27;101145.88;;;28.32;37.26
71344;BME280;59146;43.850;25.948;2023-07-08T13:25:53;101104.06;;;27.87;38.57
71344;BME280;59146;43.850;25.948;2023-07-08T13:30:58;101098.34;;;27.90;37.85
71344;BME280;59146;43.850;25.948;2023-07-08T13:33:30;101145.94;;;28.17;38.41
71344;BME280;59146;43.850;25.948;2023-07-08T13:35:56;101145.66;;;28.12;38.73
71344;BME280;59146;43.850;25.948;2023-07-08T13:38:24;101072.50;;;27.89;37.66
71344;BME280;59146;43.850;25.948;2023-07-08T13:40:55;101140.03;;;28.70;37.11
71344;BME280;59146;43.850;25.948;2023-07-08T13:43:29;101107.56;;;28.44;36.91
71344;BME280;59146;43.850;25.948;2023-07-08T13:45:55;101099.38;;;27.74;36.95